Time;durP1;ratioP1;P1;durP2;ratioP2;P2;SDS_P1;SDS_P2;PMS_P1;PMS_P2;Temp;Humidity;BMP_temperature;BMP_pressure;BME280_temperature;BME280_humidity;BME280_pressure;Samples;Min_cycle;Max_cycle;Signal;HPM_P1;HPM_P2
2022/02/10 00:17:36;;;;;;;7.45;1.35;;;;;;;;;;6118154;23;20553;-59
2022/02/10 00:20:32;;;;;;;6.97;0.82;;;;;;;;;;6118352;23;20108;-58
2022/02/10 00:26:11;;;;;;;3.58;0.50;;;;;;;;;;6117867;23;20052;-59
2022/02/10 00:36:35;;;;;;;9.93;0.88;;;;;;;;;;6118169;23;20072;-60
2022/02/10 00:39:15;;;;;;;11.18;1.65;;;;;;;;;;6116893;23;20014;-57
2022/02/10 00:41:41;;;;;;;4.45;0.95;;;;;;;;;;6118034;23;20010;-59
2022/02/10 00:44:06;;;;;;;1.92;0.68;;;;;;;;;;6118450;23;20349;-59
2022/02/10 00:46:32;;;;;;;5.28;0.75;;;;;;;;;;6118116;23;20010;-59
2022/02/10 00:48:57;;;;;;;8.40;1.02;;;;;;;;;;6117447;23;20394;-59
2022/02/10 00:51:23;;;;;;;6.97;1.23;;;;;;;;;;6117889;23;20396;-59
2022/02/10 00:53:48;;;;;;;4.80;0.57;;;;;;;;;;6116732;23;20041;-59
2022/02/10 00:56:14;;;;;;;6.07;0.57;;;;;;;;;;6117619;23;20014;-60
2022/02/10 00:58:43;;;;;;;1.95;0.28;;;;;;;;;;6117273;23;20014;-60
2022/02/10 01:30:37;;;;;;;4.05;0.50;;;;;;;;;;6117356;23;20024;-60
2022/02/10 01:33:06;;;;;;;3.75;0.47;;;;;;;;;;6117675;23;20018;-60
2022/02/10 01:35:32;;;;;;;6.85;0.68;;;;;;;;;;6117344;23;20013;-60
2022/02/10 01:37:57;;;;;;;9.80;1.20;;;;;;;;;;6117718;23;20101;-60
2022/02/10 01:40:40;;;;;;;7.40;0.70;;;;;;;;;;6118103;23;20336;-60
2022/02/10 02:05:02;;;;;;;8.50;1.33;;;;;;;;;;6117138;23;20108;-61
2022/02/10 02:07:30;;;;;;;6.00;1.83;;;;;;;;;;6117528;23;20014;-60
2022/02/10 02:09:56;;;;;;;6.20;0.95;;;;;;;;;;6116957;23;20014;-60
2022/02/10 02:12:21;;;;;;;7.20;0.52;;;;;;;;;;6116180;23;20341;-60
2022/02/10 02:14:47;;;;;;;5.28;0.82;;;;;;;;;;6117431;23;20006;-60
2022/02/10 02:17:13;;;;;;;13.02;1.63;;;;;;;;;;6116798;23;20498;-60
2022/02/10 02:19:38;;;;;;;7.03;0.90;;;;;;;;;;6117919;23;20002;-60
2022/02/10 02:22:06;;;;;;;7.78;0.98;;;;;;;;;;6117056;23;20013;-60
2022/02/10 02:24:32;;;;;;;7.75;1.30;;;;;;;;;;6117809;23;20010;-60
2022/02/10 02:27:01;;;;;;;3.95;0.52;;;;;;;;;;6117411;23;20064;-60
2022/02/10 02:29:35;;;;;;;10.18;1.70;;;;;;;;;;6117095;23;20173;-60
2022/02/10 02:32:12;;;;;;;5.15;0.65;;;;;;;;;;6117097;23;20512;-60
2022/02/10 02:37:29;;;;;;;11.90;0.88;;;;;;;;;;6118172;23;20014;-60
2022/02/10 03:05:24;;;;;;;7.65;0.60;;;;;;;;;;6117364;23;20016;-61
2022/02/10 03:07:52;;;;;;;7.25;0.98;;;;;;;;;;6117217;23;20442;-60
2022/02/10 03:12:43;;;;;;;7.90;1.00;;;;;;;;;;6118299;23;20065;-60
2022/02/10 03:15:20;;;;;;;3.25;0.38;;;;;;;;;;6115100;23;20073;-60
2022/02/10 03:20:53;;;;;;;9.82;0.93;;;;;;;;;;6115341;23;20049;-60
2022/02/10 04:02:23;;;;;;;8.88;1.02;;;;;;;;;;6118236;23;20545;-60
2022/02/10 04:13:09;;;;;;;6.65;1.00;;;;;;;;;;6118765;23;20021;-60
2022/02/10 04:16:04;;;;;;;7.13;1.08;;;;;;;;;;6118503;23;20077;-60
2022/02/10 04:59:08;;;;;;;5.38;0.45;;;;;;;;;;6117826;23;20025;-60
2022/02/10 05:04:50;;;;;;;4.07;1.00;;;;;;;;;;6117322;23;20021;-60
2022/02/10 05:33:15;;;;;;;10.98;1.67;;;;;;;;;;6117272;23;20801;-60
2022/02/10 05:35:48;;;;;;;9.10;0.93;;;;;;;;;;6117790;23;20496;-60
2022/02/10 05:43:47;;;;;;;8.25;1.13;;;;;;;;;;6052080;23;20017;-60
2022/02/10 05:46:29;;;;;;;16.67;1.27;;;;;;;;;;6116597;23;20068;-60
2022/02/10 06:51:18;;;;;;;7.70;1.35;;;;;;;;;;6115577;23;20475;-59
2022/02/10 06:56:51;;;;;;;8.93;1.50;;;;;;;;;;6116851;23;20042;-60
2022/02/10 07:05:20;;;;;;;7.53;1.48;;;;;;;;;;6118938;23;20021;-59
2022/02/10 07:10:32;;;;;;;1.23;0.22;;;;;;;;;;6118447;23;20032;-60
2022/02/10 07:46:48;;;;;;;12.43;2.08;;;;;;;;;;6116856;23;20432;-60
2022/02/10 08:04:39;;;;;;;6.38;0.82;;;;;;;;;;6116070;23;20020;-60
2022/02/10 08:55:55;;;;;;;8.90;0.73;;;;;;;;;;6119851;23;20080;-62
2022/02/10 08:58:54;;;;;;;5.40;1.13;;;;;;;;;;6117415;23;20010;-62
2022/02/10 09:03:58;;;;;;;17.60;1.27;;;;;;;;;;6119083;23;20029;-62
2022/02/10 09:55:32;;;;;;;5.28;0.70;;;;;;;;;;6117112;23;20010;-62
2022/02/10 10:03:26;;;;;;;4.93;1.10;;;;;;;;;;6116897;23;20032;-62
2022/02/10 10:05:59;;;;;;;2.42;0.50;;;;;;;;;;6117639;23;20006;-61
2022/02/10 10:08:40;;;;;;;6.05;1.23;;;;;;;;;;6117765;23;20041;-62
2022/02/10 10:14:07;;;;;;;6.85;1.25;;;;;;;;;;6093041;23;20024;-62
2022/02/10 10:19:43;;;;;;;8.27;0.85;;;;;;;;;;6121829;23;20504;-62
2022/02/10 10:53:28;;;;;;;6.38;0.93;;;;;;;;;;6116640;23;20018;-62
2022/02/10 10:56:08;;;;;;;6.72;0.65;;;;;;;;;;6117396;23;20010;-61
2022/02/10 11:43:43;;;;;;;8.32;1.00;;;;;;;;;;6102404;23;20024;-65
2022/02/10 12:02:04;;;;;;;3.30;0.90;;;;;;;;;;6118906;23;20337;-65
2022/02/10 14:09:08;;;;;;;12.25;1.38;;;;;;;;;;6118546;23;20096;-64
2022/02/10 14:15:21;;;;;;;5.03;0.70;;;;;;;;;;6118546;23;20200;-65
2022/02/10 14:17:48;;;;;;;7.82;1.00;;;;;;;;;;6117823;23;20396;-65
2022/02/10 14:25:35;;;;;;;15.37;1.27;;;;;;;;;;6074255;23;20025;-63
2022/02/10 14:26:21;;;;;;;5.63;0.80;;;;;;;;;;6118487;23;20010;-65
2022/02/10 14:28:47;;;;;;;15.88;1.42;;;;;;;;;;6116663;23;20084;-65
2022/02/10 14:31:12;;;;;;;11.50;1.40;;;;;;;;;;6118985;23;20038;-64
2022/02/10 14:33:40;;;;;;;7.45;0.75;;;;;;;;;;6118509;23;20084;-63
2022/02/10 14:36:16;;;;;;;6.05;0.82;;;;;;;;;;6118763;23;20089;-65
2022/02/10 15:36:28;;;;;;;1.52;0.63;;;;;;;;;;6119094;23;20086;-65
2022/02/10 15:50:08;;;;;;;2.60;0.65;;;;;;;;;;6119569;23;20679;-65
2022/02/10 16:11:18;;;;;;;3.05;1.35;;;;;;;;;;6119463;23;20192;-64
2022/02/10 16:18:53;;;;;;;1.55;0.47;;;;;;;;;;6120252;23;20014;-64
2022/02/10 16:24:14;;;;;;;3.13;0.75;;;;;;;;;;6120111;23;20006;-62
2022/02/10 16:26:52;;;;;;;4.78;0.75;;;;;;;;;;6120281;23;20156;-63
2022/02/10 16:29:19;;;;;;;5.03;0.82;;;;;;;;;;6119844;23;20010;-64
2022/02/10 16:31:44;;;;;;;2.80;1.02;;;;;;;;;;6120910;23;20088;-64
2022/02/10 16:34:11;;;;;;;3.75;1.00;;;;;;;;;;6119443;23;20010;-64
2022/02/10 16:36:37;;;;;;;2.47;0.55;;;;;;;;;;6119783;23;20044;-64
2022/02/10 16:39:03;;;;;;;4.05;0.43;;;;;;;;;;6119176;23;20006;-65
2022/02/10 16:41:29;;;;;;;4.25;0.80;;;;;;;;;;6119595;23;20002;-65
2022/02/10 16:43:55;;;;;;;5.90;0.70;;;;;;;;;;6120504;23;20020;-65
2022/02/10 16:46:22;;;;;;;6.00;0.80;;;;;;;;;;6119955;23;20105;-65
2022/02/10 16:48:48;;;;;;;3.72;0.90;;;;;;;;;;6119786;23;20025;-65
2022/02/10 16:51:13;;;;;;;1.75;0.68;;;;;;;;;;6119703;23;20014;-64
2022/02/10 16:53:42;;;;;;;5.10;0.82;;;;;;;;;;6119885;23;20349;-65
2022/02/10 16:56:14;;;;;;;6.30;0.93;;;;;;;;;;6120315;23;20426;-64
2022/02/10 16:58:50;;;;;;;5.47;0.85;;;;;;;;;;6118225;23;20014;-64
2022/02/10 17:01:35;;;;;;;4.38;0.88;;;;;;;;;;6119579;23;20020;-65
2022/02/10 17:20:11;;;;;;;4.45;1.13;;;;;;;;;;6122028;23;20018;-64
2022/02/10 17:25:29;;;;;;;3.17;1.20;;;;;;;;;;6119529;23;20097;-63
2022/02/10 17:27:59;;;;;;;12.02;1.85;;;;;;;;;;6117974;23;20077;-64
2022/02/10 17:33:24;;;;;;;9.88;2.30;;;;;;;;;;6084522;23;20010;-65
2022/02/10 17:54:20;;;;;;;6.30;2.00;;;;;;;;;;6118811;23;20213;-64
2022/02/10 17:56:46;;;;;;;4.32;2.00;;;;;;;;;;6118831;23;20181;-63
2022/02/10 17:59:11;;;;;;;3.42;1.60;;;;;;;;;;6118725;23;20465;-64
2022/02/10 18:01:37;;;;;;;9.18;3.00;;;;;;;;;;6117511;23;20009;-66
2022/02/10 18:04:02;;;;;;;4.95;2.00;;;;;;;;;;6118798;23;20068;-66
2022/02/10 18:06:29;;;;;;;5.93;2.05;;;;;;;;;;6116927;23;20025;-64
2022/02/10 18:14:04;;;;;;;5.60;1.48;;;;;;;;;;6118920;23;20013;-62
2022/02/10 18:24:18;;;;;;;4.72;2.10;;;;;;;;;;6118528;23;20036;-63
2022/02/10 18:27:34;;;;;;;11.25;2.45;;;;;;;;;;6117177;23;20437;-59
2022/02/10 19:09:47;;;;;;;17.60;5.03;;;;;;;;;;6115890;23;20024;-60
2022/02/10 19:13:00;;;;;;;15.32;4.85;;;;;;;;;;6116328;23;20699;-60
2022/02/10 19:15:11;;;;;;;13.23;4.07;;;;;;;;;;6090800;23;20393;-60
2022/02/10 19:17:38;;;;;;;15.68;3.40;;;;;;;;;;6119482;23;20073;-60
2022/02/10 19:20:05;;;;;;;12.25;3.47;;;;;;;;;;6117175;23;20018;-59
2022/02/10 19:22:31;;;;;;;12.90;3.47;;;;;;;;;;6118713;23;20085;-60
2022/02/10 19:24:56;;;;;;;7.68;2.35;;;;;;;;;;6117893;23;20034;-60
2022/02/10 19:27:22;;;;;;;16.95;3.85;;;;;;;;;;6116746;23;20006;-60
2022/02/10 19:29:49;;;;;;;11.07;3.65;;;;;;;;;;6115702;23;20508;-58
2022/02/10 19:32:18;;;;;;;9.20;2.83;;;;;;;;;;6115601;23;20010;-60
2022/02/10 19:34:46;;;;;;;7.20;2.45;;;;;;;;;;6117774;23;20013;-59
2022/02/10 19:37:14;;;;;;;16.23;3.28;;;;;;;;;;6117153;23;20349;-60
2022/02/10 19:39:42;;;;;;;10.65;2.50;;;;;;;;;;6118893;23;20470;-59
2022/02/10 19:42:08;;;;;;;18.55;3.80;;;;;;;;;;6118892;23;20002;-60
2022/02/10 19:44:34;;;;;;;9.88;2.03;;;;;;;;;;6117381;23;20016;-60
2022/02/10 19:47:03;;;;;;;16.23;2.50;;;;;;;;;;6118529;23;20013;-60
2022/02/10 19:49:30;;;;;;;17.05;3.40;;;;;;;;;;6117400;23;20022;-60
2022/02/10 19:51:56;;;;;;;17.00;3.45;;;;;;;;;;6118676;23;20084;-60
2022/02/10 19:54:30;;;;;;;6.68;1.90;;;;;;;;;;6118041;23;20036;-60
2022/02/10 19:56:57;;;;;;;9.63;2.55;;;;;;;;;;6118795;23;20013;-60
2022/02/10 19:59:26;;;;;;;9.63;2.33;;;;;;;;;;6118508;23;20013;-60
2022/02/10 20:01:53;;;;;;;12.38;3.42;;;;;;;;;;6116329;23;20089;-60
2022/02/10 20:04:21;;;;;;;7.25;1.88;;;;;;;;;;6117988;23;20017;-60
2022/02/10 20:06:47;;;;;;;15.38;2.65;;;;;;;;;;6118059;23;20029;-60
2022/02/10 20:09:15;;;;;;;14.75;3.42;;;;;;;;;;6118667;23;20431;-60
2022/02/10 20:11:41;;;;;;;23.80;3.78;;;;;;;;;;6118860;23;20041;-61
2022/02/10 20:14:06;;;;;;;12.30;2.88;;;;;;;;;;6119403;23;20006;-60
2022/02/10 20:16:32;;;;;;;9.07;2.42;;;;;;;;;;6119999;23;20394;-60
2022/02/10 20:18:57;;;;;;;9.95;2.47;;;;;;;;;;6120008;23;20076;-60
2022/02/10 20:21:23;;;;;;;15.45;4.07;;;;;;;;;;6120038;23;20014;-60
2022/02/10 20:23:49;;;;;;;6.57;2.53;;;;;;;;;;6120028;23;20021;-60
2022/02/10 20:26:15;;;;;;;8.05;2.80;;;;;;;;;;6119327;23;20013;-60
2022/02/10 20:28:42;;;;;;;10.05;3.50;;;;;;;;;;6120573;23;20061;-60
2022/02/10 20:31:09;;;;;;;9.60;3.25;;;;;;;;;;6119828;23;20029;-60
2022/02/10 20:33:35;;;;;;;7.82;2.85;;;;;;;;;;6119979;23;20112;-60
2022/02/10 20:36:03;;;;;;;13.05;3.50;;;;;;;;;;6120351;23;20033;-60
2022/02/10 20:38:31;;;;;;;11.75;3.33;;;;;;;;;;6119185;23;20014;-60
2022/02/10 20:41:03;;;;;;;12.63;3.50;;;;;;;;;;6120337;23;20014;-61
2022/02/10 20:43:29;;;;;;;;;;;;;;;;;;6121035;23;20064;-60
2022/02/10 20:46:01;;;;;;;5.82;2.22;;;;;;;;;;6120130;23;19913;-60
2022/02/10 20:48:30;;;;;;;9.82;2.97;;;;;;;;;;6119434;23;20374;-56
2022/02/10 20:50:57;;;;;;;16.23;3.92;;;;;;;;;;6118879;23;20108;-61
2022/02/10 20:53:27;;;;;;;15.45;2.97;;;;;;;;;;6118913;23;20429;-60
2022/02/10 20:55:54;;;;;;;11.43;2.70;;;;;;;;;;6118443;23;20350;-61
2022/02/10 20:58:23;;;;;;;16.17;4.60;;;;;;;;;;6118306;23;20014;-59
2022/02/10 21:00:50;;;;;;;12.10;3.83;;;;;;;;;;6120479;23;20008;-60
2022/02/10 21:03:16;;;;;;;11.95;3.20;;;;;;;;;;6119138;23;20021;-60
2022/02/10 21:05:43;;;;;;;13.00;3.75;;;;;;;;;;6119639;23;20021;-60
2022/02/10 21:10:37;;;;;;;15.35;3.60;;;;;;;;;;6120133;23;20530;-60
2022/02/10 21:13:03;;;;;;;17.50;3.72;;;;;;;;;;6119365;23;20020;-60
2022/02/10 21:15:37;;;;;;;12.20;3.63;;;;;;;;;;6119493;23;20406;-60
2022/02/10 21:18:03;;;;;;;8.88;2.78;;;;;;;;;;6118063;23;20370;-60
2022/02/10 21:20:32;;;;;;;12.52;2.80;;;;;;;;;;6119283;23;20029;-60
2022/02/10 21:23:06;;;;;;;9.35;3.40;;;;;;;;;;6117438;23;20006;-60
2022/02/10 21:25:36;;;;;;;6.90;2.50;;;;;;;;;;6120455;23;20346;-61
2022/02/10 21:28:07;;;;;;;6.82;2.50;;;;;;;;;;6118160;23;20017;-61
2022/02/10 21:30:33;;;;;;;14.45;4.03;;;;;;;;;;6119888;23;20018;-60
2022/02/10 21:33:01;;;;;;;13.05;3.55;;;;;;;;;;6119507;23;20338;-61
2022/02/10 21:35:59;;;;;;;13.95;2.95;;;;;;;;;;6094410;23;20390;-60
2022/02/10 21:38:22;;;;;;;18.25;3.90;;;;;;;;;;6118404;23;20513;-61
2022/02/10 22:00:25;;;;;;;19.85;2.90;;;;;;;;;;6109633;23;20732;-60
2022/02/10 22:18:45;;;;;;;13.35;2.75;;;;;;;;;;6117647;23;20021;-59
2022/02/10 22:21:13;;;;;;;11.57;1.88;;;;;;;;;;6116646;23;20009;-60
2022/02/10 22:23:42;;;;;;;9.25;2.42;;;;;;;;;;6117327;23;20084;-59
2022/02/10 22:26:17;;;;;;;11.70;2.30;;;;;;;;;;6118219;23;20336;-58
2022/02/10 22:29:06;;;;;;;12.63;2.25;;;;;;;;;;6116256;23;20064;-59
2022/02/10 22:34:11;;;;;;;7.53;1.40;;;;;;;;;;6117889;23;20046;-63
2022/02/10 22:36:39;;;;;;;11.82;2.33;;;;;;;;;;6118471;23;20096;-62
2022/02/10 22:39:06;;;;;;;12.68;3.03;;;;;;;;;;6116250;23;20010;-62
2022/02/10 22:41:32;;;;;;;9.38;2.67;;;;;;;;;;6119182;23;20418;-61
2022/02/10 22:44:00;;;;;;;14.27;3.03;;;;;;;;;;6117926;23;20419;-62
2022/02/10 22:46:27;;;;;;;15.38;2.80;;;;;;;;;;6117187;23;20374;-63
2022/02/10 22:48:52;;;;;;;10.23;3.03;;;;;;;;;;6115731;23;20075;-62
2022/02/10 22:51:20;;;;;;;14.90;2.20;;;;;;;;;;6117113;23;20018;-63
2022/02/10 22:53:46;;;;;;;13.82;2.47;;;;;;;;;;6116633;23;20013;-62
2022/02/10 22:56:14;;;;;;;7.68;2.45;;;;;;;;;;6116799;23;20535;-63
2022/02/10 22:58:40;;;;;;;9.52;2.38;;;;;;;;;;6117709;23;20014;-63
2022/02/10 23:01:07;;;;;;;23.42;2.60;;;;;;;;;;6116382;23;20093;-63
2022/02/10 23:03:36;;;;;;;19.92;3.95;;;;;;;;;;6115540;23;20120;-64
2022/02/10 23:06:03;;;;;;;15.77;3.63;;;;;;;;;;6118032;23;20009;-63
2022/02/10 23:08:28;;;;;;;13.43;3.42;;;;;;;;;;6118381;23;20040;-62
2022/02/10 23:10:54;;;;;;;18.92;3.40;;;;;;;;;;6115624;23;20014;-64
2022/02/10 23:13:25;;;;;;;12.95;3.05;;;;;;;;;;6115632;23;20021;-63
2022/02/10 23:15:52;;;;;;;16.95;3.47;;;;;;;;;;6118455;23;20009;-62
2022/02/10 23:18:22;;;;;;;15.10;3.42;;;;;;;;;;6117086;23;20029;-62
2022/02/10 23:20:50;;;;;;;14.32;3.70;;;;;;;;;;6118179;23;20002;-63
2022/02/10 23:23:19;;;;;;;12.75;2.13;;;;;;;;;;6118215;23;20020;-62
2022/02/10 23:25:46;;;;;;;18.77;3.20;;;;;;;;;;6118124;23;20010;-62
2022/02/10 23:28:16;;;;;;;12.75;2.67;;;;;;;;;;6117462;23;20426;-64
2022/02/10 23:30:46;;;;;;;12.43;2.40;;;;;;;;;;6118031;23;20025;-64
2022/02/10 23:33:20;;;;;;;8.20;2.70;;;;;;;;;;6117726;23;20012;-64
2022/02/10 23:38:36;;;;;;;17.45;2.17;;;;;;;;;;6117450;23;20017;-64
2022/02/10 23:43:48;;;;;;;15.07;2.80;;;;;;;;;;6117565;23;20476;-62
2022/02/10 23:46:14;;;;;;;4.13;1.77;;;;;;;;;;6118075;23;20005;-63
2022/02/10 23:48:40;;;;;;;20.27;2.15;;;;;;;;;;6118900;23;20094;-64
2022/02/10 23:51:06;;;;;;;14.20;2.40;;;;;;;;;;6118895;23;20110;-63
2022/02/10 23:53:33;;;;;;;14.05;2.40;;;;;;;;;;6119090;23;20018;-62
2022/02/10 23:56:01;;;;;;;15.88;2.88;;;;;;;;;;6119796;23;20009;-63
2022/02/10 23:58:40;;;;;;;16.92;2.58;;;;;;;;;;6119258;23;20402;-63
